createdAt,value
2018-09-02T00:01:49.179Z,61.82
2018-09-02T00:04:17.077Z,61.96
2018-09-02T00:06:44.656Z,61.74
2018-09-02T00:09:12.297Z,61.59
2018-09-02T00:11:40.300Z,61.73
2018-09-02T00:14:07.919Z,61.64
2018-09-02T00:16:35.546Z,62.13
2018-09-02T00:19:03.456Z,61.57
2018-09-02T00:21:31.035Z,61.57
2018-09-02T00:23:58.612Z,61.91
2018-09-02T00:26:26.198Z,62.06
2018-09-02T00:28:53.815Z,62.05
2018-09-02T00:31:21.439Z,61.63
2018-09-02T00:33:51.455Z,61.96
2018-09-02T00:36:19.135Z,62.06
2018-09-02T00:38:47.788Z,62.00
2018-09-02T00:41:15.788Z,62.72
2018-09-02T00:43:43.720Z,62.09
2018-09-02T00:46:11.356Z,62.70
2018-09-02T00:48:39.395Z,62.74
2018-09-02T00:51:07.003Z,62.37
2018-09-02T00:53:34.718Z,62.88
2018-09-02T00:56:02.828Z,62.90
2018-09-02T00:58:31.483Z,62.86
2018-09-02T01:00:59.099Z,63.20
2018-09-02T01:03:26.994Z,62.81
2018-09-02T01:05:54.610Z,63.24
2018-09-02T01:08:22.339Z,62.96
2018-09-02T01:10:50.594Z,62.57
2018-09-02T01:13:18.478Z,63.16
2018-09-02T01:15:46.685Z,63.03
2018-09-02T01:18:15.320Z,63.10
2018-09-02T01:20:43.386Z,62.87
2018-09-02T01:23:11.095Z,63.91
2018-09-02T01:25:39.330Z,63.22
2018-09-02T01:28:07.315Z,63.28
2018-09-02T01:30:34.970Z,63.62
2018-09-02T01:33:02.567Z,63.31
2018-09-02T01:35:34.521Z,62.96
2018-09-02T01:38:03.479Z,63.37
2018-09-02T01:40:31.190Z,63.23
2018-09-02T01:42:59.124Z,63.04
2018-09-02T01:45:26.745Z,63.79
2018-09-02T01:47:54.350Z,63.10
2018-09-02T01:50:21.974Z,63.83
2018-09-02T01:52:50.179Z,63.78
2018-09-02T01:55:17.799Z,63.60
2018-09-02T01:57:45.389Z,63.95
2018-09-02T02:00:13.380Z,63.93
2018-09-02T02:02:41.045Z,63.67
2018-09-02T02:05:08.644Z,63.41
2018-09-02T02:07:36.691Z,63.44
2018-09-02T02:10:04.301Z,63.63
2018-09-02T02:12:31.965Z,63.58
2018-09-02T02:15:00.076Z,63.55
2018-09-02T02:17:27.786Z,63.38
2018-09-02T02:19:55.495Z,63.70
2018-09-02T02:22:23.495Z,63.85
2018-09-02T02:24:51.075Z,63.89
2018-09-02T02:27:18.692Z,62.92
2018-09-02T02:29:46.715Z,64.00
2018-09-02T02:32:14.593Z,63.71
2018-09-02T02:34:42.247Z,63.49
2018-09-02T02:37:10.310Z,63.87
2018-09-02T02:39:37.897Z,63.87
2018-09-02T02:42:05.500Z,64.49
2018-09-02T02:44:33.557Z,64.10
2018-09-02T02:47:01.320Z,63.80
2018-09-02T02:49:28.928Z,63.93
2018-09-02T02:51:57.110Z,64.57
2018-09-02T02:54:24.716Z,64.02
2018-09-02T02:56:52.337Z,64.82
2018-09-02T02:59:20.459Z,64.12
2018-09-02T03:01:48.036Z,64.37
2018-09-02T03:04:15.638Z,64.67
2018-09-02T03:06:43.639Z,64.75
2018-09-02T03:09:12.357Z,64.19
2018-09-02T03:11:40.109Z,63.77
2018-09-02T03:14:08.666Z,65.03
2018-09-02T03:16:36.279Z,64.14
2018-09-02T03:19:03.951Z,64.89
2018-09-02T03:21:32.051Z,64.54
2018-09-02T03:23:59.635Z,64.74
2018-09-02T03:26:27.221Z,64.81
2018-09-02T03:28:54.827Z,65.07
2018-09-02T03:31:22.447Z,65.14
2018-09-02T03:33:50.060Z,64.90
2018-09-02T03:36:18.145Z,64.50
2018-09-02T03:38:45.745Z,65.09
2018-09-02T03:41:13.327Z,64.94
2018-09-02T03:43:40.956Z,64.75
2018-09-02T03:46:08.959Z,64.89
2018-09-02T03:48:36.583Z,64.44
2018-09-02T03:51:04.192Z,64.47
2018-09-02T03:53:31.788Z,64.46
2018-09-02T03:55:59.820Z,64.41
2018-09-02T03:58:27.438Z,64.71
2018-09-02T04:00:55.075Z,64.77
2018-09-02T04:03:22.734Z,64.79
2018-09-02T04:05:50.628Z,65.47
2018-09-02T04:08:18.219Z,64.85
2018-09-02T04:10:45.809Z,65.14
2018-09-02T04:13:13.428Z,65.28
2018-09-02T04:15:41.515Z,64.95
2018-09-02T04:18:09.124Z,65.61
2018-09-02T04:20:37.497Z,65.27
2018-09-02T04:23:05.946Z,65.21
2018-09-02T04:25:34.441Z,65.24
2018-09-02T04:28:02.022Z,65.45
2018-09-02T04:30:30.168Z,65.47
2018-09-02T04:32:58.317Z,65.11
2018-09-02T04:35:26.232Z,65.49
2018-09-02T04:37:54.842Z,65.34
2018-09-02T04:40:22.978Z,65.38
2018-09-02T04:42:50.886Z,65.26
2018-09-02T04:45:18.567Z,65.61
2018-09-02T04:47:46.246Z,65.01
2018-09-02T04:50:15.713Z,65.66
2018-09-02T04:52:43.855Z,65.15
2018-09-02T04:55:11.550Z,65.54
2018-09-02T04:57:39.278Z,65.45
2018-09-02T05:00:08.054Z,65.97
2018-09-02T05:02:35.667Z,66.02
2018-09-02T05:05:03.292Z,65.37
2018-09-02T05:07:30.908Z,65.99
2018-09-02T05:09:58.860Z,65.30
2018-09-02T05:12:26.523Z,65.37
2018-09-02T05:14:54.836Z,65.25
2018-09-02T05:17:23.714Z,65.56
2018-09-02T05:19:51.687Z,65.27
2018-09-02T05:22:19.367Z,65.21
2018-09-02T05:24:47.208Z,65.14
2018-09-02T05:27:15.179Z,64.90
2018-09-02T05:29:42.779Z,65.18
2018-09-02T05:32:10.347Z,64.72
2018-09-02T05:34:38.321Z,64.35
2018-09-02T05:37:06.175Z,64.36
2018-09-02T05:39:34.458Z,64.25
2018-09-02T05:42:03.122Z,64.44
2018-09-02T05:44:30.725Z,63.88
2018-09-02T05:46:58.355Z,63.86
2018-09-02T05:49:25.973Z,62.99
2018-09-02T05:51:54.011Z,63.20
2018-09-02T05:54:21.650Z,62.84
2018-09-02T05:56:49.261Z,62.87
2018-09-02T05:59:17.253Z,62.88
2018-09-02T06:01:44.873Z,62.26
2018-09-02T06:04:12.502Z,62.96
2018-09-02T06:06:40.469Z,62.35
2018-09-02T06:09:08.079Z,62.22
2018-09-02T06:11:35.719Z,62.16
2018-09-02T06:14:04.316Z,62.62
2018-09-02T06:16:31.940Z,62.33
2018-09-02T06:18:59.551Z,62.15
2018-09-02T06:21:27.510Z,61.95
2018-09-02T06:23:55.455Z,61.84
2018-09-02T06:26:23.069Z,62.43
2018-09-02T06:28:50.699Z,62.29
2018-09-02T06:31:18.681Z,62.21
2018-09-02T06:33:46.274Z,62.05
2018-09-02T06:36:13.935Z,61.40
2018-09-02T06:38:41.607Z,61.86
2018-09-02T06:41:09.514Z,61.16
2018-09-02T06:43:37.182Z,61.05
2018-09-02T06:46:05.440Z,61.45
2018-09-02T06:48:33.850Z,60.89
2018-09-02T06:51:01.478Z,60.96
2018-09-02T06:53:29.083Z,61.20
2018-09-02T06:55:57.006Z,60.99
2018-09-02T06:58:24.788Z,60.50
2018-09-02T07:00:52.406Z,60.31
2018-09-02T07:03:20.550Z,60.08
2018-09-02T07:05:48.343Z,60.20
2018-09-02T07:08:16.962Z,60.07
2018-09-02T07:10:45.646Z,59.37
2018-09-02T07:13:15.274Z,59.68
2018-09-02T07:15:42.896Z,59.45
2018-09-02T07:18:16.432Z,58.63
2018-09-02T07:20:45.397Z,58.03
2018-09-02T07:23:13.007Z,58.09
2018-09-02T07:25:41.036Z,57.64
2018-09-02T07:28:08.622Z,57.53
2018-09-02T07:30:36.266Z,56.96
2018-09-02T07:33:04.321Z,57.17
2018-09-02T07:35:32.030Z,56.65
2018-09-02T07:37:59.816Z,56.76
2018-09-02T07:40:28.790Z,56.19
2018-09-02T07:42:56.410Z,56.41
2018-09-02T07:45:24.548Z,56.24
2018-09-02T07:47:52.587Z,56.05
2018-09-02T07:50:20.183Z,55.82
2018-09-02T07:52:48.700Z,55.62
2018-09-02T07:55:16.815Z,56.03
2018-09-02T07:57:44.416Z,55.74
2018-09-02T08:00:12.972Z,55.10
2018-09-02T08:02:41.494Z,54.83
2018-09-02T08:05:09.348Z,54.67
2018-09-02T08:07:37.263Z,55.16
2018-09-02T08:10:05.332Z,55.03
2018-09-02T08:12:33.047Z,54.67
2018-09-02T08:15:01.203Z,55.00
2018-09-02T08:17:30.196Z,54.75
2018-09-02T08:19:58.889Z,54.75
2018-09-02T08:22:26.766Z,54.93
2018-09-02T08:24:54.911Z,54.24
2018-09-02T08:29:47.720Z,54.25
2018-09-02T08:32:15.605Z,53.87
2018-09-02T08:34:43.191Z,53.40
2018-09-02T08:37:11.527Z,53.02
2018-09-02T08:39:39.498Z,53.14
2018-09-02T08:42:07.136Z,52.92
2018-09-02T08:44:34.755Z,52.72
2018-09-02T08:47:02.826Z,52.42
2018-09-02T08:49:30.430Z,52.02
2018-09-02T08:52:01.241Z,52.18
2018-09-02T08:54:29.172Z,52.71
2018-09-02T08:56:56.774Z,52.49
2018-09-02T08:59:24.751Z,52.34
2018-09-02T09:01:52.782Z,51.46
2018-09-02T09:04:20.391Z,51.39
2018-09-02T09:06:47.997Z,51.37
2018-09-02T09:09:17.583Z,50.92
2018-09-02T09:11:44.954Z,51.17
2018-09-02T09:14:13.613Z,50.70
2018-09-02T09:16:42.628Z,50.42
2018-09-02T09:19:10.239Z,50.22
2018-09-02T09:21:38.195Z,49.55
2018-09-02T09:24:07.127Z,49.94
2018-09-02T09:26:34.787Z,49.05
2018-09-02T09:29:02.570Z,48.74
2018-09-02T09:31:30.520Z,48.46
2018-09-02T09:33:59.263Z,48.76
2018-09-02T09:36:26.855Z,48.26
2018-09-02T09:38:55.436Z,48.00
2018-09-02T09:41:23.005Z,47.55
2018-09-02T09:43:50.583Z,46.55
2018-09-02T09:46:18.660Z,45.74
2018-09-02T09:48:46.275Z,44.34
2018-09-02T09:51:14.604Z,43.31
2018-09-02T09:53:42.574Z,42.66
2018-09-02T09:56:10.923Z,42.16
2018-09-02T09:58:39.470Z,41.71
2018-09-02T10:01:07.468Z,40.87
2018-09-02T10:03:36.648Z,39.84
2018-09-02T10:06:05.366Z,39.88
2018-09-02T10:08:33.347Z,39.47
2018-09-02T10:11:02.578Z,39.10
2018-09-02T10:13:31.563Z,37.95
2018-09-02T10:15:59.480Z,38.05
2018-09-02T10:18:27.055Z,37.46
2018-09-02T10:20:54.624Z,37.71
2018-09-02T10:23:22.710Z,37.41
2018-09-02T10:25:50.895Z,36.01
2018-09-02T10:28:19.611Z,36.50
2018-09-02T10:30:48.529Z,35.46
2018-09-02T10:33:16.974Z,35.11
2018-09-02T10:35:44.631Z,35.57
2018-09-02T10:38:12.650Z,35.13
2018-09-02T10:40:40.267Z,34.45
2018-09-02T10:43:08.434Z,34.63
2018-09-02T10:45:37.539Z,33.54
2018-09-02T10:48:05.136Z,33.73
2018-09-02T10:50:32.733Z,33.59
2018-09-02T10:53:01.347Z,33.35
2018-09-02T10:55:28.953Z,33.03
2018-09-02T10:57:57.125Z,32.74
2018-09-02T11:00:25.167Z,31.67
2018-09-02T11:02:54.292Z,31.91
2018-09-02T11:05:21.916Z,31.79
2018-09-02T11:07:49.853Z,30.74
2018-09-02T11:10:19.203Z,30.54
2018-09-02T11:12:46.825Z,30.67
2018-09-02T11:15:15.282Z,29.54
2018-09-02T11:17:43.010Z,30.55
2018-09-02T11:20:11.071Z,30.73
2018-09-02T11:22:40.831Z,30.31
2018-09-02T11:25:08.740Z,30.32
2018-09-02T11:27:37.155Z,30.35
2018-09-02T11:30:05.205Z,30.00
2018-09-02T11:32:34.459Z,29.61
2018-09-02T11:35:02.090Z,29.32
2018-09-02T11:37:30.187Z,28.84
2018-09-02T11:39:57.890Z,28.34
2018-09-02T11:42:26.046Z,29.10
2018-09-02T11:44:54.080Z,28.12
2018-09-02T11:47:21.888Z,28.13
2018-09-02T11:49:49.474Z,28.12
2018-09-02T11:52:18.213Z,28.69
2018-09-02T11:54:47.772Z,27.19
2018-09-02T11:57:15.520Z,28.63
2018-09-02T11:59:46.498Z,27.63
2018-09-02T12:02:14.269Z,27.77
2018-09-02T12:04:44.729Z,27.04
2018-09-02T12:07:14.466Z,27.48
2018-09-02T12:09:42.530Z,27.81
2018-09-02T12:12:10.157Z,27.41
2018-09-02T12:14:38.248Z,26.70
2018-09-02T12:17:05.872Z,27.13
2018-09-02T12:19:33.511Z,26.24
2018-09-02T12:22:01.603Z,27.01
2018-09-02T12:24:29.190Z,25.74
2018-09-02T12:26:56.788Z,26.41
2018-09-02T12:29:24.338Z,26.73
2018-09-02T12:31:52.747Z,26.79
2018-09-02T12:34:20.839Z,26.51
2018-09-02T12:36:49.054Z,25.97
2018-09-02T12:39:18.905Z,26.58
2018-09-02T12:41:49.679Z,27.03
2018-09-02T12:44:17.299Z,25.97
2018-09-02T12:46:46.289Z,26.03
2018-09-02T12:49:14.267Z,26.00
2018-09-02T12:51:42.018Z,25.29
2018-09-02T12:54:10.358Z,25.65
2018-09-02T12:56:38.396Z,24.78
2018-09-02T12:59:06.050Z,25.29
2018-09-02T13:01:33.657Z,26.04
2018-09-02T13:04:02.014Z,26.23
2018-09-02T13:06:30.219Z,27.32
2018-09-02T13:08:58.466Z,27.55
2018-09-02T13:11:26.921Z,28.78
2018-09-02T13:13:55.442Z,27.65
2018-09-02T13:16:24.131Z,28.77
2018-09-02T13:18:52.845Z,28.43
2018-09-02T13:21:25.515Z,29.09
2018-09-02T13:23:53.167Z,28.54
2018-09-02T13:26:22.015Z,28.42
2018-09-02T13:28:50.218Z,29.80
2018-09-02T13:31:18.332Z,29.74
2018-09-02T13:33:46.431Z,30.43
2018-09-02T13:36:14.055Z,29.66
2018-09-02T13:38:43.948Z,29.56
2018-09-02T13:41:12.014Z,29.83
2018-09-02T13:43:40.266Z,29.80
2018-09-02T13:46:07.849Z,31.05
2018-09-02T13:48:36.242Z,31.04
2018-09-02T13:51:03.865Z,30.74
2018-09-02T13:53:32.319Z,31.00
2018-09-02T13:56:00.394Z,31.89
2018-09-02T13:58:28.695Z,32.20
2018-09-02T14:00:56.293Z,32.30
2018-09-02T14:03:27.387Z,32.48
2018-09-02T14:05:55.907Z,31.79
2018-09-02T14:08:23.711Z,32.70
2018-09-02T14:10:51.700Z,32.56
2018-09-02T14:13:20.986Z,32.01
2018-09-02T14:15:48.610Z,32.19
2018-09-02T14:18:16.629Z,32.83
2018-09-02T14:20:45.403Z,32.95
2018-09-02T14:23:13.149Z,32.99
2018-09-02T14:25:41.237Z,32.29
2018-09-02T14:28:08.911Z,32.75
2018-09-02T14:30:36.519Z,32.11
2018-09-02T14:33:04.488Z,32.74
2018-09-02T14:35:33.070Z,32.05
2018-09-02T14:38:00.966Z,32.94
2018-09-02T14:40:28.955Z,32.63
2018-09-02T14:42:56.582Z,32.54
2018-09-02T14:45:24.209Z,31.65
2018-09-02T14:47:52.967Z,32.27
2018-09-02T14:50:23.894Z,32.06
2018-09-02T14:52:51.468Z,32.29
2018-09-02T14:55:20.285Z,32.02
2018-09-02T14:57:50.115Z,31.49
2018-09-02T15:00:18.670Z,31.43
2018-09-02T15:02:47.066Z,30.74
2018-09-02T15:05:14.676Z,31.34
2018-09-02T15:07:42.278Z,31.78
2018-09-02T15:10:10.306Z,31.10
2018-09-02T15:12:37.922Z,31.46
2018-09-02T15:15:06.467Z,30.84
2018-09-02T15:17:34.463Z,30.93
2018-09-02T15:20:02.042Z,31.28
2018-09-02T15:22:29.635Z,31.56
2018-09-02T15:25:00.438Z,31.71
2018-09-02T15:27:28.229Z,32.54
2018-09-02T15:29:55.940Z,33.34
2018-09-02T15:32:23.930Z,33.37
2018-09-02T15:34:52.466Z,34.68
2018-09-02T15:37:22.947Z,34.97
2018-09-02T15:39:56.726Z,35.24
2018-09-02T15:42:25.682Z,35.32
2018-09-02T15:44:53.398Z,35.62
2018-09-02T15:47:21.271Z,35.66
2018-09-02T15:49:50.059Z,36.04
2018-09-02T15:52:18.506Z,35.74
2018-09-02T15:54:46.530Z,35.54
2018-09-02T15:57:15.290Z,36.29
2018-09-02T15:59:45.407Z,36.75
2018-09-02T16:02:14.215Z,36.28
2018-09-02T16:04:42.019Z,36.27
2018-09-02T16:07:09.715Z,36.20
2018-09-02T16:09:39.608Z,36.55
2018-09-02T16:12:11.682Z,36.95
2018-09-02T16:14:40.083Z,36.79
2018-09-02T16:17:08.919Z,36.39
2018-09-02T16:19:37.577Z,36.45
2018-09-02T16:22:05.207Z,36.59
2018-09-02T16:24:33.210Z,36.71
2018-09-02T16:27:00.912Z,37.26
2018-09-02T16:29:29.363Z,36.62
2018-09-02T16:31:57.296Z,37.60
2018-09-02T16:34:25.721Z,37.23
2018-09-02T16:36:53.342Z,37.37
2018-09-02T16:39:22.279Z,37.92
2018-09-02T16:41:51.083Z,37.87
2018-09-02T16:44:19.359Z,37.72
2018-09-02T16:46:48.476Z,38.37
2018-09-02T16:49:16.652Z,37.91
2018-09-02T16:51:45.921Z,38.47
2018-09-02T16:54:14.539Z,37.86
2018-09-02T16:56:42.283Z,38.11
2018-09-02T16:59:09.965Z,38.57
2018-09-02T17:01:38.100Z,38.70
2018-09-02T17:04:09.530Z,38.76
2018-09-02T17:06:38.257Z,39.12
2018-09-02T17:09:06.204Z,39.10
2018-09-02T17:11:34.930Z,38.60
2018-09-02T17:14:03.207Z,38.70
2018-09-02T17:16:31.091Z,39.08
2018-09-02T17:19:04.155Z,39.05
2018-09-02T17:21:31.788Z,39.14
2018-09-02T17:23:59.860Z,39.44
2018-09-02T17:26:27.476Z,40.01
2018-09-02T17:28:55.104Z,39.44
2018-09-02T17:31:23.387Z,39.93
2018-09-02T17:33:51.016Z,40.05
2018-09-02T17:36:20.118Z,39.88
2018-09-02T17:38:48.366Z,39.74
2018-09-02T17:41:16.003Z,39.59
2018-09-02T17:43:44.022Z,40.96
2018-09-02T17:46:12.620Z,40.45
2018-09-02T17:48:41.096Z,40.80
2018-09-02T17:51:09.756Z,40.85
2018-09-02T17:53:37.405Z,40.21
2018-09-02T17:56:05.043Z,40.75
2018-09-02T17:58:33.730Z,40.28
2018-09-02T18:01:06.791Z,40.49
2018-09-02T18:03:34.665Z,40.51
2018-09-02T18:06:04.513Z,40.98
2018-09-02T18:08:33.115Z,41.20
2018-09-02T18:11:01.216Z,40.67
2018-09-02T18:13:29.441Z,41.08
2018-09-02T18:15:57.127Z,41.46
2018-09-02T18:18:26.243Z,41.58
2018-09-02T18:20:54.006Z,41.31
2018-09-02T18:23:22.633Z,41.25
2018-09-02T18:25:50.660Z,41.79
2018-09-02T18:28:21.319Z,41.75
2018-09-02T18:30:49.627Z,41.72
2018-09-02T18:33:20.601Z,41.87
2018-09-02T18:35:48.883Z,41.52
2018-09-02T18:38:16.610Z,42.14
2018-09-02T18:40:45.263Z,42.17
2018-09-02T18:43:12.892Z,41.74
2018-09-02T18:45:40.529Z,42.15
2018-09-02T18:48:09.055Z,42.44
2018-09-02T18:50:37.288Z,41.86
2018-09-02T18:53:05.939Z,41.85
2018-09-02T18:55:33.968Z,42.49
2018-09-02T18:58:02.567Z,42.31
2018-09-02T19:00:31.252Z,42.86
2018-09-02T19:03:00.373Z,42.65
2018-09-02T19:05:30.654Z,42.17
2018-09-02T19:08:00.587Z,42.39
2018-09-02T19:10:28.520Z,42.79
2018-09-02T19:12:56.362Z,42.73
2018-09-02T19:15:25.707Z,42.75
2018-09-02T19:18:00.447Z,42.99
2018-09-02T19:20:28.038Z,42.90
2018-09-02T19:22:57.205Z,42.84
2018-09-02T19:25:31.448Z,42.44
2018-09-02T19:28:00.461Z,43.37
2018-09-02T19:30:30.340Z,43.06
2018-09-02T19:32:58.576Z,42.58
2018-09-02T19:35:27.780Z,43.51
2018-09-02T19:37:56.477Z,42.77
2018-09-02T19:40:24.770Z,43.44
2018-09-02T19:45:27.109Z,43.18
2018-09-02T19:47:58.618Z,43.89
2018-09-02T19:50:26.355Z,43.95
2018-09-02T19:52:54.727Z,43.33
2018-09-02T19:55:26.227Z,44.08
2018-09-02T19:57:54.661Z,43.29
2018-09-02T20:00:23.277Z,44.08
2018-09-02T20:02:55.238Z,43.56
2018-09-02T20:05:23.834Z,44.49
2018-09-02T20:07:53.668Z,43.96
2018-09-02T20:10:35.131Z,44.49
2018-09-02T20:13:04.824Z,44.25
2018-09-02T20:15:34.723Z,44.73
2018-09-02T20:18:04.911Z,44.10
2018-09-02T20:20:32.533Z,44.99
2018-09-02T20:23:01.500Z,44.39
2018-09-02T20:25:31.399Z,44.52
2018-09-02T20:28:00.914Z,45.36
2018-09-02T20:30:29.082Z,45.08
2018-09-02T20:32:56.738Z,45.28
2018-09-02T20:35:26.237Z,45.79
2018-09-02T20:37:54.889Z,45.30
2018-09-02T20:40:22.595Z,46.18
2018-09-02T20:42:50.889Z,46.02
2018-09-02T20:45:19.548Z,45.91
2018-09-02T20:47:47.235Z,45.57
2018-09-02T20:50:15.974Z,45.72
2018-09-02T20:52:44.162Z,46.16
2018-09-02T20:55:14.493Z,46.04
2018-09-02T20:57:43.341Z,45.98
2018-09-02T21:00:12.361Z,46.25
2018-09-02T21:02:40.088Z,47.08
2018-09-02T21:05:08.496Z,46.51
2018-09-02T21:07:36.518Z,46.57
2018-09-02T21:10:04.298Z,46.09
2018-09-02T21:12:35.626Z,46.41
2018-09-02T21:15:04.389Z,46.91
2018-09-02T21:17:33.803Z,47.63
2018-09-02T21:20:03.111Z,47.16
2018-09-02T21:22:31.167Z,47.52
2018-09-02T21:25:00.061Z,47.82
2018-09-02T21:27:28.398Z,47.07
2018-09-02T21:29:56.473Z,48.02
2018-09-02T21:32:25.258Z,47.60
2018-09-02T21:34:52.909Z,47.91
2018-09-02T21:37:32.253Z,47.47
2018-09-02T21:39:59.921Z,47.72
2018-09-02T21:42:28.681Z,48.17
2018-09-02T21:44:56.601Z,47.66
2018-09-02T21:47:25.746Z,48.50
2018-09-02T21:49:53.786Z,47.94
2018-09-02T21:52:21.554Z,48.63
2018-09-02T21:54:50.337Z,48.63
2018-09-02T21:57:20.823Z,47.78
2018-09-02T21:59:48.554Z,48.13
2018-09-02T22:02:16.250Z,48.83
2018-09-02T22:04:44.465Z,48.76
2018-09-02T22:07:12.320Z,48.10
2018-09-02T22:09:39.920Z,48.35
2018-09-02T22:12:07.949Z,49.02
2018-09-02T22:14:36.113Z,48.39
2018-09-02T22:17:04.456Z,49.24
2018-09-02T22:19:32.447Z,48.77
2018-09-02T22:22:00.047Z,48.83
2018-09-02T22:24:27.657Z,48.29
2018-09-02T22:26:56.554Z,49.14
2018-09-02T22:29:24.436Z,48.26
2018-09-02T22:31:52.587Z,48.95
2018-09-02T22:34:20.566Z,49.09
2018-09-02T22:36:49.000Z,48.32
2018-09-02T22:39:16.621Z,48.75
2018-09-02T22:41:45.177Z,48.37
2018-09-02T22:44:15.674Z,48.74
2018-09-02T22:46:43.229Z,49.01
2018-09-02T22:49:10.836Z,48.46
2018-09-02T22:51:38.778Z,48.67
2018-09-02T22:54:07.213Z,48.71
2018-09-02T22:56:35.803Z,48.72
2018-09-02T22:59:03.846Z,48.48
2018-09-02T23:01:31.444Z,48.98
2018-09-02T23:03:59.014Z,49.18
2018-09-02T23:06:26.618Z,48.87
2018-09-02T23:08:54.553Z,49.25
2018-09-02T23:11:25.810Z,48.84
2018-09-02T23:13:53.404Z,49.46
2018-09-02T23:16:21.482Z,49.41
2018-09-02T23:18:49.084Z,49.51
2018-09-02T23:21:16.694Z,49.12
2018-09-02T23:23:44.823Z,49.47
2018-09-02T23:26:13.237Z,48.97
2018-09-02T23:28:42.094Z,49.76
2018-09-02T23:31:10.619Z,49.86
2018-09-02T23:33:38.206Z,48.82
2018-09-02T23:36:05.764Z,49.62
2018-09-02T23:38:33.326Z,49.94
2018-09-02T23:41:01.274Z,49.05
2018-09-02T23:43:28.875Z,49.09
2018-09-02T23:45:56.468Z,49.68
2018-09-02T23:51:04.766Z,49.33
2018-09-02T23:53:32.448Z,49.78
2018-09-02T23:56:00.107Z,50.34
2018-09-02T23:58:27.738Z,49.27
